Time;durP1;ratioP1;P1;durP2;ratioP2;P2;SDS_P1;SDS_P2;PMS_P1;PMS_P2;Temp;Humidity;BMP_temperature;BMP_pressure;BME280_temperature;BME280_humidity;BME280_pressure;Samples;Min_cycle;Max_cycle;Signal;HPM_P1;HPM_P2
2021/03/10 00:00:18;;;;;;;41.13;12.60;;;;;;;2.71;100.00;101212.84;4990700;28;20055;-66
2021/03/10 00:02:44;;;;;;;39.83;12.60;;;;;;;2.73;100.00;101215.50;4993194;28;20023;-66
2021/03/10 00:05:10;;;;;;;43.80;13.10;;;;;;;2.74;100.00;101209.50;4990645;28;20286;-66
2021/03/10 00:07:36;;;;;;;41.43;12.10;;;;;;;2.71;100.00;101217.13;4992588;28;20018;-66
2021/03/10 00:10:06;;;;;;;47.57;13.43;;;;;;;2.71;100.00;101209.38;4991642;28;20277;-66
2021/03/10 00:12:32;;;;;;;41.70;12.60;;;;;;;2.69;100.00;101205.88;4991301;28;20607;-66
2021/03/10 00:14:58;;;;;;;44.07;11.67;;;;;;;2.67;100.00;101202.34;4991394;28;20313;-66
2021/03/10 00:17:23;;;;;;;50.73;11.70;;;;;;;2.64;100.00;101203.97;4991259;28;20415;-66
2021/03/10 00:19:49;;;;;;;44.63;12.03;;;;;;;2.63;100.00;101211.66;4992138;28;20113;-66
2021/03/10 00:22:14;;;;;;;45.27;13.17;;;;;;;2.60;100.00;101214.09;4990034;28;20365;-66
2021/03/10 00:24:40;;;;;;;42.00;11.20;;;;;;;2.57;100.00;101212.28;4990777;28;20113;-66
2021/03/10 00:27:05;;;;;;;43.53;12.20;;;;;;;2.54;100.00;101212.13;4991837;28;20038;-66
2021/03/10 00:29:31;;;;;;;38.80;11.30;;;;;;;2.54;100.00;101206.09;4990308;28;20042;-66
2021/03/10 00:31:56;;;;;;;40.83;10.73;;;;;;;2.53;100.00;101225.84;4991863;28;20042;-66
2021/03/10 00:34:22;;;;;;;43.13;12.57;;;;;;;2.53;100.00;101220.69;4992431;28;20030;-66
2021/03/10 00:36:47;;;;;;;45.93;12.57;;;;;;;2.53;100.00;101217.22;4992171;28;20467;-66
2021/03/10 00:39:13;;;;;;;42.33;12.37;;;;;;;2.51;100.00;101216.28;4992631;28;20053;-66
2021/03/10 00:41:38;;;;;;;49.20;11.97;;;;;;;2.51;100.00;101218.88;4990525;28;20030;-66
2021/03/10 00:44:04;;;;;;;46.60;11.40;;;;;;;2.52;100.00;101218.06;4990297;28;20362;-66
2021/03/10 00:46:29;;;;;;;47.33;12.23;;;;;;;2.53;100.00;101217.22;4991251;28;20036;-66
2021/03/10 00:48:54;;;;;;;43.23;11.37;;;;;;;2.56;100.00;101213.09;4992115;28;20030;-66
2021/03/10 00:51:20;;;;;;;41.73;12.03;;;;;;;2.56;100.00;101214.81;4988935;28;20029;-66
2021/03/10 00:53:45;;;;;;;47.23;13.33;;;;;;;2.56;100.00;101207.06;4992121;28;20030;-66
2021/03/10 00:56:11;;;;;;;46.97;13.03;;;;;;;2.52;100.00;101207.72;4990014;28;20446;-66
2021/03/10 00:58:36;;;;;;;47.30;13.33;;;;;;;2.52;100.00;101213.78;4991353;28;20030;-66
2021/03/10 01:01:02;;;;;;;41.43;12.83;;;;;;;2.53;100.00;101214.66;4991374;28;20101;-66
2021/03/10 01:03:27;;;;;;;48.07;12.63;;;;;;;2.49;100.00;101207.59;4991389;28;20403;-66
2021/03/10 01:05:54;;;;;;;51.00;12.80;;;;;;;2.50;100.00;101214.53;4990251;28;20056;-66
2021/03/10 01:08:19;;;;;;;58.10;13.20;;;;;;;2.49;100.00;101216.22;4991416;28;20301;-66
2021/03/10 01:10:46;;;;;;;45.67;11.93;;;;;;;2.50;100.00;101210.25;4991588;28;20031;-66
2021/03/10 01:13:12;;;;;;;45.43;11.97;;;;;;;2.53;100.00;101206.91;4991123;28;20038;-66
2021/03/10 01:15:37;;;;;;;44.43;11.50;;;;;;;2.50;100.00;101204.22;4991263;28;20285;-66
2021/03/10 01:18:03;;;;;;;46.97;12.97;;;;;;;2.51;100.00;101205.97;4991136;28;20041;-66
2021/03/10 01:20:28;;;;;;;42.73;13.57;;;;;;;2.53;100.00;101206.91;4989390;28;20034;-66
2021/03/10 01:22:54;;;;;;;44.30;13.07;;;;;;;2.54;100.00;101212.13;4990839;28;20019;-66
2021/03/10 01:25:20;;;;;;;45.23;13.30;;;;;;;2.55;100.00;101213.03;4990825;28;20034;-66
2021/03/10 01:27:46;;;;;;;44.10;12.77;;;;;;;2.56;100.00;101214.81;4994450;28;20030;-66
2021/03/10 01:30:14;;;;;;;45.83;13.43;;;;;;;2.56;100.00;101214.81;4993712;28;20281;-66
2021/03/10 01:32:39;;;;;;;49.83;12.73;;;;;;;2.56;100.00;101209.66;4993396;28;20041;-66
2021/03/10 01:35:07;;;;;;;42.90;12.87;;;;;;;2.56;100.00;101217.38;4993293;28;20288;-66
2021/03/10 01:37:33;;;;;;;43.30;12.47;;;;;;;2.53;100.00;101215.53;4994595;28;20030;-66
2021/03/10 01:39:59;;;;;;;42.10;12.97;;;;;;;2.52;100.00;101221.50;4994903;28;20757;-66
2021/03/10 01:42:25;;;;;;;51.23;13.47;;;;;;;2.50;100.00;101212.81;4995424;28;20273;-66
2021/03/10 01:44:51;;;;;;;43.27;13.37;;;;;;;2.49;100.00;101223.97;4994331;28;20308;-66
2021/03/10 01:47:18;;;;;;;45.17;13.37;;;;;;;2.45;100.00;101237.56;4992602;28;20475;-66
2021/03/10 01:49:44;;;;;;;51.07;13.37;;;;;;;2.45;100.00;101236.69;4992075;28;20049;-66
2021/03/10 01:52:10;;;;;;;48.33;13.70;;;;;;;2.45;100.00;101242.75;4994451;28;20293;-66
2021/03/10 01:54:35;;;;;;;48.47;13.00;;;;;;;2.45;100.00;101245.31;4995551;28;20026;-66
2021/03/10 01:57:01;;;;;;;46.67;13.53;;;;;;;2.45;100.00;101234.13;4994116;28;20419;-66
2021/03/10 01:59:27;;;;;;;44.63;12.67;;;;;;;2.47;100.00;101229.91;4996388;28;20530;-66
2021/03/10 02:01:52;;;;;;;46.77;12.80;;;;;;;2.48;100.00;101224.78;5001968;23;20286;-81
2021/03/10 02:04:18;;;;;;;44.47;12.57;;;;;;;2.42;100.00;101200.41;5000676;28;20061;-80
2021/03/10 02:06:50;;;;;;;49.60;13.17;;;;;;;2.48;100.00;101222.22;5004949;28;20022;-80
2021/03/10 02:09:44;;;;;;;47.30;13.47;;;;;;;2.46;100.00;101202.31;4995939;28;20400;-80
2021/03/10 02:12:27;;;;;;;45.60;12.73;;;;;;;2.41;100.00;101196.06;4997693;28;21164;-81
2021/03/10 02:15:11;;;;;;;45.80;12.63;;;;;;;2.42;100.00;101203.00;5004042;28;20281;-80
2021/03/10 02:17:42;;;;;;;51.10;12.27;;;;;;;2.42;100.00;101205.56;4993703;28;20046;-80
2021/03/10 02:20:08;;;;;;;52.43;12.90;;;;;;;2.45;100.00;101211.78;5001097;28;20301;-80
2021/03/10 02:23:11;;;;;;;48.80;14.20;;;;;;;2.43;100.00;101213.41;4997696;28;20317;-80
2021/03/10 02:25:39;;;;;;;;;;;;;;;2.40;100.00;101213.25;5007604;28;20496;-80
2021/03/10 02:28:06;;;;;;;42.57;11.57;;;;;;;2.34;100.00;101203.56;5002693;28;19914;-80
2021/03/10 02:30:37;;;;;;;46.00;12.60;;;;;;;2.32;100.00;101205.22;4998290;28;20324;-81
2021/03/10 02:33:06;;;;;;;54.83;14.17;;;;;;;2.33;100.00;101206.09;5006426;28;20791;-80
2021/03/10 02:35:32;;;;;;;47.63;12.87;;;;;;;2.30;100.00;101195.59;5004947;28;20285;-80
2021/03/10 02:38:05;;;;;;;50.23;13.27;;;;;;;2.37;100.00;101204.50;4999637;28;20285;-80
2021/03/10 02:40:32;;;;;;;49.07;13.27;;;;;;;2.34;100.00;101187.22;4996536;28;21785;-80
2021/03/10 02:42:58;;;;;;;56.43;13.57;;;;;;;2.33;100.00;101181.16;5005673;28;20281;-80
2021/03/10 02:45:26;;;;;;;55.70;14.10;;;;;;;2.27;100.00;101167.97;4998685;28;20632;-80
2021/03/10 02:47:51;;;;;;;49.43;13.57;;;;;;;2.26;100.00;101168.81;4997438;28;20288;-80
2021/03/10 02:50:18;;;;;;;49.63;12.43;;;;;;;2.23;100.00;101176.41;4996873;28;20276;-80
2021/03/10 02:52:44;;;;;;;49.23;13.23;;;;;;;2.20;100.00;101178.88;5005249;28;20359;-80
2021/03/10 02:55:10;;;;;;;53.90;14.17;;;;;;;2.17;100.00;101173.56;5002421;28;20285;-80
2021/03/10 02:57:36;;;;;;;48.13;13.57;;;;;;;2.19;100.00;101171.06;5009475;28;20811;-80
2021/03/10 03:00:07;;;;;;;57.77;13.57;;;;;;;2.18;100.00;101165.03;4995171;28;20361;-80
2021/03/10 03:02:33;;;;;;;62.00;13.50;;;;;;;2.22;100.00;101177.25;4992834;28;20302;-80
2021/03/10 03:04:58;;;;;;;44.20;12.30;;;;;;;2.22;100.00;101172.09;5000762;28;20658;-80
2021/03/10 03:07:24;;;;;;;55.87;12.77;;;;;;;2.22;100.00;101177.25;4993895;28;20022;-80
2021/03/10 03:09:49;;;;;;;51.30;13.07;;;;;;;2.25;100.00;101182.53;4994301;28;20038;-80
2021/03/10 03:12:15;;;;;;;50.07;13.40;;;;;;;2.22;100.00;101179.81;4992509;28;20060;-80
2021/03/10 03:14:46;;;;;;;50.67;15.07;;;;;;;2.24;100.00;101180.75;4992605;28;20018;-81
2021/03/10 03:17:14;;;;;;;68.43;14.40;;;;;;;2.25;100.00;101185.09;4994198;28;20065;-80
2021/03/10 03:19:40;;;;;;;55.57;14.90;;;;;;;2.27;100.00;101188.63;4997256;28;20313;-81
2021/03/10 03:22:07;;;;;;;60.97;15.03;;;;;;;2.29;100.00;101189.56;4991884;28;20309;-80
2021/03/10 03:24:33;;;;;;;58.23;14.03;;;;;;;2.28;100.00;101187.81;4995961;28;20026;-80
2021/03/10 03:27:00;;;;;;;64.03;16.13;;;;;;;2.35;100.00;101191.53;4989058;28;20316;-80
2021/03/10 03:29:27;;;;;;;60.07;15.33;;;;;;;2.35;100.00;101195.00;4992927;28;20364;-80
2021/03/10 03:31:55;;;;;;;69.23;15.27;;;;;;;2.37;100.00;101189.03;4989848;28;20849;-80
2021/03/10 03:34:21;;;;;;;63.93;14.13;;;;;;;2.33;100.00;101188.91;4988695;28;20374;-79
2021/03/10 03:36:47;;;;;;;53.40;14.60;;;;;;;2.32;100.00;101188.84;4993868;28;20392;-80
2021/03/10 03:39:12;;;;;;;57.13;15.00;;;;;;;2.32;100.00;101194.88;4992109;28;20345;-81
2021/03/10 03:41:38;;;;;;;57.97;13.87;;;;;;;2.28;100.00;101187.81;4993037;28;20081;-80
2021/03/10 03:44:04;;;;;;;54.10;13.63;;;;;;;2.27;100.00;101186.03;4989139;28;20034;-80
2021/03/10 03:46:31;;;;;;;52.60;14.73;;;;;;;2.24;100.00;101191.09;4992940;28;20026;-80
2021/03/10 03:49:01;;;;;;;58.63;13.57;;;;;;;2.24;100.00;101191.09;4985631;28;20593;-81
2021/03/10 03:51:29;;;;;;;66.30;15.57;;;;;;;2.25;100.00;101198.00;4991053;28;20281;-81
2021/03/10 03:54:05;;;;;;;62.67;14.03;;;;;;;2.22;100.00;101187.56;4994122;28;20344;-81
2021/03/10 03:56:31;;;;;;;64.97;14.83;;;;;;;2.27;100.00;101190.31;4998936;28;20455;-80
2021/03/10 03:58:57;;;;;;;56.60;14.93;;;;;;;2.28;100.00;101187.81;4985325;28;20340;-80
2021/03/10 04:01:23;;;;;;;58.40;14.43;;;;;;;2.31;100.00;101200.88;5000691;28;20293;-80
2021/03/10 04:03:49;;;;;;;55.93;14.30;;;;;;;2.31;100.00;101189.66;4991337;28;20510;-81
2021/03/10 04:06:16;;;;;;;58.00;14.23;;;;;;;2.33;100.00;101201.81;4999257;28;20299;-80
2021/03/10 04:08:43;;;;;;;63.50;15.03;;;;;;;2.32;100.00;101194.00;4996704;28;20379;-80
2021/03/10 04:11:11;;;;;;;55.43;13.70;;;;;;;2.26;100.00;101191.16;4990201;28;20395;-80
2021/03/10 04:13:37;;;;;;;56.93;13.20;;;;;;;2.22;100.00;101187.56;4985955;28;20302;-80
2021/03/10 04:16:03;;;;;;;61.33;13.63;;;;;;;2.24;100.00;101187.63;4990980;28;20289;-80
2021/03/10 04:18:31;;;;;;;61.07;14.20;;;;;;;2.24;100.00;101180.75;4991147;28;20269;-80
2021/03/10 04:20:57;;;;;;;73.30;15.90;;;;;;;2.22;100.00;101181.53;4989708;28;20320;-80
2021/03/10 04:23:22;;;;;;;63.37;14.40;;;;;;;2.23;100.00;101179.00;4990477;28;20686;-80
2021/03/10 04:25:48;;;;;;;73.30;15.67;;;;;;;2.22;100.00;101177.25;4988313;28;20029;-80
2021/03/10 04:28:13;;;;;;;68.73;15.73;;;;;;;2.21;100.00;101170.31;4992655;28;20560;-80
2021/03/10 04:30:39;;;;;;;79.50;14.93;;;;;;;2.24;100.00;101179.88;4994012;28;20034;-80
2021/03/10 04:33:05;;;;;;;74.50;16.07;;;;;;;2.28;100.00;101171.44;4990663;28;20030;-80
2021/03/10 04:35:30;;;;;;;73.90;16.33;;;;;;;2.26;100.00;101176.53;4990614;28;20034;-80
2021/03/10 04:37:56;;;;;;;67.80;15.50;;;;;;;2.20;100.00;101178.88;4993691;28;20064;-80
2021/03/10 04:40:22;;;;;;;64.43;16.17;;;;;;;2.17;100.00;101170.97;4990743;28;20375;-80
2021/03/10 04:42:48;;;;;;;75.23;15.67;;;;;;;2.13;100.00;101166.53;4990967;28;20121;-80
2021/03/10 04:45:14;;;;;;;66.37;14.53;;;;;;;2.05;100.00;101149.81;4989340;28;20089;-80
2021/03/10 04:47:41;;;;;;;63.00;15.20;;;;;;;2.03;100.00;101147.19;5000148;28;20431;-80
2021/03/10 04:50:08;;;;;;;66.70;15.10;;;;;;;1.98;100.00;101152.97;4993197;28;20273;-81
2021/03/10 04:52:33;;;;;;;69.27;15.93;;;;;;;2.00;100.00;101159.97;4991620;28;20289;-80
2021/03/10 04:54:59;;;;;;;79.83;15.43;;;;;;;1.97;100.00;101164.09;4992171;28;20277;-80
2021/03/10 04:57:25;;;;;;;77.07;16.40;;;;;;;1.94;100.00;101174.25;4991024;28;20030;-80
2021/03/10 04:59:50;;;;;;;96.90;19.23;;;;;;;1.95;100.00;101181.22;4990820;28;20030;-80
2021/03/10 05:02:16;;;;;;;80.33;17.33;;;;;;;1.91;100.00;101174.13;4990553;28;20189;-80
2021/03/10 05:04:42;;;;;;;96.77;17.33;;;;;;;1.92;100.00;101184.50;4994979;28;20034;-81
2021/03/10 05:07:07;;;;;;;78.83;17.20;;;;;;;1.93;100.00;101182.81;4991872;28;20427;-80
2021/03/10 05:09:33;;;;;;;94.60;18.77;;;;;;;1.96;100.00;101172.66;4991204;28;20460;-80
2021/03/10 05:11:58;;;;;;;113.73;20.57;;;;;;;2.04;100.00;101191.91;4992418;28;20463;-80
2021/03/10 05:14:24;;;;;;;80.67;17.20;;;;;;;2.05;100.00;101179.06;4992809;28;20042;-81
2021/03/10 05:16:50;;;;;;;101.03;18.80;;;;;;;2.04;100.00;101179.00;4991729;28;20037;-80
2021/03/10 05:19:15;;;;;;;99.13;18.70;;;;;;;2.11;100.00;101180.19;4994471;28;20038;-80
2021/03/10 05:21:41;;;;;;;93.03;18.30;;;;;;;2.12;100.00;101180.25;4989252;28;20065;-80
2021/03/10 05:24:07;;;;;;;87.67;19.10;;;;;;;2.14;100.00;101173.44;4992021;28;20033;-80
2021/03/10 05:26:32;;;;;;;91.63;19.93;;;;;;;2.15;100.00;101169.16;4990767;28;20038;-80
2021/03/10 05:28:58;;;;;;;97.97;20.17;;;;;;;2.14;100.00;101168.28;4992689;28;20301;-80
2021/03/10 05:31:23;;;;;;;95.00;18.87;;;;;;;2.14;100.00;101165.69;4991131;28;20027;-80
2021/03/10 05:33:49;;;;;;;98.73;17.63;;;;;;;2.15;100.00;101164.88;4992358;28;20125;-80
2021/03/10 05:36:14;;;;;;;94.07;18.47;;;;;;;2.13;100.00;101166.53;4984905;28;20049;-80
2021/03/10 05:38:40;;;;;;;89.47;17.10;;;;;;;2.10;100.00;101161.25;4991050;28;20038;-80
2021/03/10 05:41:05;;;;;;;87.87;18.10;;;;;;;2.09;100.00;101149.16;4990525;28;20041;-80
2021/03/10 05:43:32;;;;;;;89.03;17.50;;;;;;;2.11;100.00;101163.00;4989773;28;20033;-80
2021/03/10 05:45:57;;;;;;;84.50;17.57;;;;;;;2.12;100.00;101164.75;4992805;28;20039;-80
2021/03/10 05:48:23;;;;;;;87.93;16.90;;;;;;;2.10;100.00;101158.66;4998668;28;20290;-80
2021/03/10 05:50:49;;;;;;;86.67;19.77;;;;;;;2.14;100.00;101169.97;4993182;28;20393;-81
2021/03/10 05:53:28;;;;;;;87.70;18.03;;;;;;;2.13;100.00;101166.53;4988871;28;20112;-80
2021/03/10 05:55:54;;;;;;;82.30;16.70;;;;;;;2.13;100.00;101161.38;4990030;28;20127;-80
2021/03/10 05:58:19;;;;;;;94.67;17.57;;;;;;;2.11;100.00;101163.00;4992987;28;20844;-80
2021/03/10 06:00:47;;;;;;;82.47;15.63;;;;;;;2.16;100.00;101168.34;4988757;28;20360;-80
2021/03/10 06:03:13;;;;;;;77.00;17.83;;;;;;;2.20;100.00;101168.56;4990344;28;20398;-80
2021/03/10 06:05:39;;;;;;;91.93;18.07;;;;;;;2.19;100.00;101151.31;4991364;28;20304;-80
2021/03/10 06:08:06;;;;;;;93.57;18.73;;;;;;;2.23;100.00;101163.53;4989430;28;20294;-80
2021/03/10 06:10:58;;;;;;;102.63;19.63;;;;;;;2.21;100.00;101141.94;4993886;28;20117;-80
2021/03/10 06:13:31;;;;;;;86.43;17.77;;;;;;;2.28;100.00;101149.09;4998114;28;20297;-81
2021/03/10 06:16:01;;;;;;;88.00;17.83;;;;;;;2.31;100.00;101157.00;4994936;28;20334;-80
2021/03/10 06:18:30;;;;;;;82.07;18.10;;;;;;;2.32;100.00;101152.72;4997167;28;20268;-81
2021/03/10 06:21:22;;;;;;;84.40;17.73;;;;;;;2.29;100.00;101153.44;4994709;28;20381;-81
2021/03/10 06:23:54;;;;;;;98.80;19.30;;;;;;;2.34;100.00;101162.28;4985075;28;20661;-81
2021/03/10 06:26:22;;;;;;;84.53;18.13;;;;;;;2.33;100.00;101155.34;4992556;28;20355;-81
2021/03/10 06:28:47;;;;;;;90.23;19.17;;;;;;;2.32;100.00;101148.44;4990781;28;20494;-81
2021/03/10 06:31:29;;;;;;;97.60;19.27;;;;;;;2.38;100.00;101158.13;4994495;28;20308;-81
2021/03/10 06:34:09;;;;;;;91.07;18.93;;;;;;;2.42;100.00;101164.28;4991756;28;20037;-81
2021/03/10 06:36:49;;;;;;;86.13;17.03;;;;;;;2.43;100.00;101158.34;4992055;28;20305;-81
2021/03/10 06:39:26;;;;;;;85.00;17.17;;;;;;;2.47;100.00;101152.47;4993127;28;20789;-81
2021/03/10 06:41:52;;;;;;;89.13;17.70;;;;;;;2.50;100.00;101163.78;4993299;28;20284;-80
2021/03/10 06:44:28;;;;;;;77.80;18.10;;;;;;;2.52;100.00;101161.25;4991263;28;20344;-81
2021/03/10 06:46:59;;;;;;;80.40;16.03;;;;;;;2.52;100.00;101156.09;4994020;28;20285;-80
2021/03/10 06:49:32;;;;;;;82.60;16.90;;;;;;;2.55;100.00;101158.84;4989611;28;20380;-80
2021/03/10 06:52:08;;;;;;;73.43;17.03;;;;;;;2.58;100.00;101172.75;4988445;28;20289;-81
2021/03/10 06:54:35;;;;;;;77.73;17.73;;;;;;;2.63;100.00;101165.19;4987860;28;20284;-80
2021/03/10 06:57:05;;;;;;;81.80;16.63;;;;;;;2.69;100.00;101173.19;4991004;28;21825;-81
2021/03/10 06:59:40;;;;;;;72.30;17.57;;;;;;;2.76;100.00;101177.75;4984109;28;20653;-81
2021/03/10 07:02:12;;;;;;;65.63;16.17;;;;;;;2.72;100.00;101165.56;4992401;28;20782;-82
2021/03/10 07:04:38;;;;;;;;;;;;;;;2.75;100.00;101176.00;4994422;28;20304;-81
2021/03/10 07:07:05;;;;;;;74.10;16.30;;;;;;;2.73;100.00;101167.31;4987468;28;19909;-81
2021/03/10 07:09:32;;;;;;;64.60;15.83;;;;;;;2.77;100.00;101169.19;4991909;28;20665;-81
2021/03/10 07:12:00;;;;;;;78.20;17.53;;;;;;;2.86;100.00;101179.03;5001158;28;20350;-80
2021/03/10 07:14:26;;;;;;;78.27;16.37;;;;;;;2.91;100.00;101178.41;4993269;28;20269;-81
2021/03/10 07:16:52;;;;;;;73.30;16.77;;;;;;;2.98;100.00;101176.03;4987900;28;20777;-81
2021/03/10 07:19:18;;;;;;;61.03;16.00;;;;;;;3.04;100.00;101184.06;5002802;28;20277;-80
2021/03/10 07:22:05;;;;;;;71.10;15.53;;;;;;;3.05;100.00;101180.66;4998155;28;20053;-80
2021/03/10 07:24:41;;;;;;;56.53;15.13;;;;;;;3.19;100.00;101185.53;4988273;28;20311;-80
2021/03/10 07:27:09;;;;;;;63.20;15.27;;;;;;;3.18;100.00;101188.06;4989242;28;20289;-81
2021/03/10 07:29:38;;;;;;;60.80;14.27;;;;;;;3.13;100.00;101189.56;4997884;28;20269;-82
2021/03/10 07:32:06;;;;;;;56.97;16.37;;;;;;;3.27;100.00;101192.69;4995154;28;20289;-80
2021/03/10 07:34:33;;;;;;;63.53;13.47;;;;;;;3.32;100.00;101192.06;5003093;28;20312;-81
2021/03/10 07:36:59;;;;;;;49.33;13.83;;;;;;;3.36;100.00;101199.09;4991770;28;20277;-80
2021/03/10 07:39:27;;;;;;;46.47;12.50;;;;;;;3.34;100.00;101193.00;4991657;28;20285;-81
2021/03/10 07:41:53;;;;;;;51.37;14.10;;;;;;;3.47;100.00;101189.16;4992215;28;20527;-81
2021/03/10 07:44:22;;;;;;;44.60;13.27;;;;;;;3.57;100.00;101192.97;4987628;28;20285;-81
2021/03/10 07:46:49;;;;;;;45.70;13.07;;;;;;;3.62;100.00;101196.59;4986712;28;20285;-81
2021/03/10 07:49:20;;;;;;;46.47;12.53;;;;;;;3.62;100.00;101199.19;4988322;28;20289;-82
2021/03/10 07:51:46;;;;;;;38.87;13.37;;;;;;;3.74;100.00;101197.06;4992573;28;20285;-81
2021/03/10 07:54:25;;;;;;;46.00;12.17;;;;;;;3.77;100.00;101192.03;4996045;28;20270;-82
2021/03/10 07:57:03;;;;;;;38.20;11.47;;;;;;;3.82;100.00;101196.53;4989112;28;20262;-81
2021/03/10 07:59:29;;;;;;;47.63;14.00;;;;;;;3.91;100.00;101190.81;4992795;28;20266;-80
2021/03/10 08:02:09;;;;;;;36.23;11.17;;;;;;;3.87;100.00;101201.84;4987300;28;20805;-82
2021/03/10 08:04:38;;;;;;;36.27;11.50;;;;;;;3.87;100.00;101200.97;4987197;28;20030;-82
2021/03/10 08:07:04;;;;;;;36.97;11.43;;;;;;;3.95;100.00;101199.56;5000872;28;20272;-81
2021/03/10 08:09:30;;;;;;;40.33;12.17;;;;;;;4.11;100.00;101194.97;4983435;28;20386;-81
2021/03/10 08:12:06;;;;;;;34.13;11.20;;;;;;;4.12;100.00;101201.06;4992122;28;20041;-82
2021/03/10 08:14:39;;;;;;;32.67;10.40;;;;;;;4.17;100.00;101203.81;4989578;28;20278;-81
2021/03/10 08:17:06;;;;;;;29.47;10.40;;;;;;;4.34;100.00;101200.97;4988018;28;20273;-81
2021/03/10 08:19:33;;;;;;;31.60;9.87;;;;;;;4.22;100.00;101194.47;4988298;28;20296;-82
2021/03/10 08:21:59;;;;;;;32.43;10.20;;;;;;;4.31;100.00;101207.75;4987298;28;20022;-81
2021/03/10 08:24:25;;;;;;;27.80;10.17;;;;;;;4.33;100.00;101198.31;4987980;28;20761;-81
2021/03/10 08:26:57;;;;;;;29.57;9.97;;;;;;;4.41;100.00;101199.47;4992277;28;20536;-81
2021/03/10 08:29:23;;;;;;;27.80;9.80;;;;;;;4.44;100.00;101190.94;4976902;28;20325;-81
2021/03/10 08:31:54;;;;;;;30.77;11.57;;;;;;;4.67;100.00;101196.06;4991061;28;20042;-81
2021/03/10 08:34:39;;;;;;;32.40;10.67;;;;;;;4.85;100.00;101190.63;4991945;28;20265;-81
2021/03/10 08:37:08;;;;;;;26.47;9.33;;;;;;;4.98;100.00;101191.88;4993103;28;20033;-81
2021/03/10 08:39:39;;;;;;;31.80;10.00;;;;;;;5.04;100.00;101184.28;4989523;28;20034;-82
2021/03/10 08:42:05;;;;;;;25.70;9.48;;;;;;;5.15;100.00;101188.09;4981581;28;20301;-81
2021/03/10 08:44:41;;;;;;;23.90;8.60;;;;;;;5.33;100.00;101186.91;4983140;28;20069;-82
2021/03/10 08:47:17;;;;;;;26.83;10.10;;;;;;;5.28;100.00;101189.38;4983116;28;20030;-82
2021/03/10 08:49:44;;;;;;;23.10;9.20;;;;;;;5.33;100.00;101186.91;4982533;28;20135;-80
2021/03/10 08:52:17;;;;;;;24.77;9.03;;;;;;;5.18;100.00;101180.41;4996364;28;20023;-81
2021/03/10 08:54:59;;;;;;;20.43;7.73;;;;;;;5.14;100.00;101175.97;4989242;28;20463;-82
2021/03/10 08:57:28;;;;;;;20.42;8.45;;;;;;;5.18;100.00;101172.63;4986628;28;20030;-82
2021/03/10 08:59:55;;;;;;;20.50;8.17;;;;;;;5.22;100.00;101173.63;4986338;28;20464;-81
2021/03/10 09:02:32;;;;;;;23.03;8.23;;;;;;;5.23;100.00;101171.09;4985226;28;20117;-82
2021/03/10 09:04:59;;;;;;;21.93;8.10;;;;;;;5.42;100.00;101166.44;4998949;28;20030;-82
2021/03/10 09:07:27;;;;;;;20.87;7.40;;;;;;;5.57;100.00;101165.19;4989858;28;20097;-82
2021/03/10 09:09:55;;;;;;;23.13;9.10;;;;;;;5.62;100.00;101174.81;4990187;28;20057;-82
2021/03/10 09:12:21;;;;;;;22.77;8.37;;;;;;;5.58;100.00;101169.53;4991367;28;20031;-82
2021/03/10 09:14:47;;;;;;;19.80;7.63;;;;;;;5.75;100.00;101161.34;5004109;28;20050;-82
2021/03/10 09:17:13;;;;;;;19.37;7.37;;;;;;;5.64;99.93;101163.63;4988177;28;20046;-81
2021/03/10 09:19:49;;;;;;;21.57;8.03;;;;;;;5.80;98.75;101160.63;4996386;28;20081;-82
2021/03/10 09:22:19;;;;;;;20.20;7.90;;;;;;;5.96;98.60;101162.00;4992276;28;20053;-82
2021/03/10 09:24:52;;;;;;;24.73;8.40;;;;;;;5.92;100.00;101159.25;4993823;28;20387;-81
2021/03/10 09:27:25;;;;;;;18.08;7.97;;;;;;;5.96;99.10;101148.16;4988586;28;20440;-82
2021/03/10 09:29:55;;;;;;;23.17;8.30;;;;;;;6.20;98.70;101141.00;4997384;28;20495;-81
2021/03/10 09:32:21;;;;;;;20.60;8.07;;;;;;;6.44;98.99;101144.25;4987837;28;20088;-82
2021/03/10 09:34:48;;;;;;;24.27;9.00;;;;;;;6.43;98.39;101137.28;4987891;28;20023;-83
2021/03/10 09:37:14;;;;;;;20.83;8.07;;;;;;;6.43;99.43;101113.91;4986790;28;20037;-82
2021/03/10 09:39:45;;;;;;;19.63;7.67;;;;;;;6.57;99.90;101123.75;4987757;28;20495;-80
2021/03/10 09:42:11;;;;;;;19.67;8.33;;;;;;;6.65;98.13;101124.81;4985491;28;20022;-80
2021/03/10 09:44:56;;;;;;;22.63;8.13;;;;;;;6.56;99.63;101119.41;4986132;28;20032;-80
2021/03/10 09:47:24;;;;;;;18.47;7.47;;;;;;;6.67;99.61;101117.94;4992355;28;20037;-79
2021/03/10 09:49:55;;;;;;;21.13;8.00;;;;;;;6.60;99.14;101109.13;4989607;28;20027;-80
2021/03/10 09:52:37;;;;;;;22.43;8.87;;;;;;;6.35;100.00;101111.94;4986268;28;20037;-82
2021/03/10 09:55:08;;;;;;;;;;;;;;;6.24;100.00;101116.88;4995814;28;20084;-81
2021/03/10 09:57:34;;;;;;;22.80;9.27;;;;;;;6.39;100.00;101113.78;4984163;28;19919;-82
2021/03/10 10:00:00;;;;;;;26.33;9.40;;;;;;;6.41;100.00;101117.28;4994256;28;20653;-82
2021/03/10 10:02:28;;;;;;;22.50;8.83;;;;;;;6.41;100.00;101119.88;4996056;28;20049;-82
2021/03/10 10:04:59;;;;;;;22.43;9.77;;;;;;;6.26;100.00;101117.78;4989025;28;20033;-82
2021/03/10 10:07:26;;;;;;;22.70;9.00;;;;;;;6.40;100.00;101107.75;4992886;28;20026;-82
2021/03/10 10:09:53;;;;;;;18.93;7.43;;;;;;;6.31;100.00;101113.59;4993386;28;20030;-82
2021/03/10 10:12:20;;;;;;;24.00;9.57;;;;;;;6.55;100.00;101112.47;4987425;28;20042;-83
2021/03/10 10:14:45;;;;;;;22.23;8.70;;;;;;;6.72;100.00;101111.13;4994785;28;20026;-82
2021/03/10 10:17:11;;;;;;;21.73;8.77;;;;;;;7.00;100.00;101112.63;4995457;28;20082;-78
2021/03/10 10:19:37;;;;;;;18.83;7.40;;;;;;;6.98;100.00;101103.94;4988818;28;20053;-82
2021/03/10 10:22:03;;;;;;;24.37;8.23;;;;;;;7.07;100.00;101113.66;4996230;28;20018;-82
2021/03/10 10:24:28;;;;;;;22.83;8.60;;;;;;;7.15;99.16;101101.69;4993364;28;20022;-83
2021/03/10 10:26:54;;;;;;;22.43;8.70;;;;;;;7.30;98.10;101091.63;4987802;28;20177;-81
2021/03/10 10:29:20;;;;;;;21.37;8.93;;;;;;;7.63;97.73;101097.53;4988727;28;20040;-81
2021/03/10 10:31:46;;;;;;;21.00;8.93;;;;;;;7.82;97.04;101097.88;4992804;28;20087;-82
2021/03/10 10:34:12;;;;;;;21.97;8.93;;;;;;;7.91;95.18;101095.44;4991192;28;20026;-83
2021/03/10 10:36:39;;;;;;;20.67;8.73;;;;;;;7.92;95.37;101078.97;4992856;28;20053;-82
2021/03/10 10:39:05;;;;;;;20.13;8.27;;;;;;;7.90;94.79;101080.69;4991247;28;20092;-82
2021/03/10 10:41:31;;;;;;;20.97;8.63;;;;;;;7.98;96.26;101076.47;4982818;28;20046;-81
2021/03/10 10:43:56;;;;;;;19.63;8.10;;;;;;;7.97;94.85;101076.44;4991133;28;20033;-82
2021/03/10 10:46:22;;;;;;;20.40;7.93;;;;;;;7.97;96.16;101079.91;4988012;28;20455;-82
2021/03/10 10:48:47;;;;;;;21.00;8.60;;;;;;;7.55;96.46;101083.47;4994303;28;20041;-83
2021/03/10 10:51:13;;;;;;;18.20;7.37;;;;;;;7.25;95.94;101082.84;4986104;28;20487;-82
2021/03/10 10:53:38;;;;;;;21.83;8.07;;;;;;;7.43;97.46;101066.75;4986175;28;20037;-83
2021/03/10 10:56:04;;;;;;;19.87;7.53;;;;;;;7.37;97.93;101072.69;4995709;28;20030;-83
2021/03/10 10:58:29;;;;;;;19.43;6.50;;;;;;;7.57;99.49;101063.56;4991713;28;20534;-82
2021/03/10 11:00:55;;;;;;;18.13;7.40;;;;;;;7.14;97.12;101059.19;5000298;28;20032;-81
2021/03/10 11:03:23;;;;;;;21.07;7.67;;;;;;;7.41;97.56;101069.31;4990049;28;20446;-80
2021/03/10 11:05:48;;;;;;;19.60;7.47;;;;;;;7.58;100.00;101059.22;4991832;28;20158;-82
2021/03/10 11:08:15;;;;;;;19.00;6.73;;;;;;;7.70;99.37;101071.59;4991874;28;20043;-82
2021/03/10 11:10:40;;;;;;;19.60;7.77;;;;;;;7.70;96.32;101066.41;4986869;28;20022;-81
2021/03/10 11:13:06;;;;;;;19.63;8.37;;;;;;;7.44;97.07;101058.97;4985312;28;20038;-83
2021/03/10 11:15:31;;;;;;;22.77;9.40;;;;;;;7.44;99.26;101056.38;4992364;28;20092;-82